sensor_id;sensor_type;location;lat;lon;timestamp;P1;durP1;ratioP1;P2;durP2;ratioP2
3843;SDS011;1937;51.444;6.484;2023-11-22T00:00:45;13.30;;;8.50;;
3843;SDS011;1937;51.444;6.484;2023-11-22T00:03:12;18.87;;;9.50;;
3843;SDS011;1937;51.444;6.484;2023-11-22T00:05:39;14.43;;;9.13;;
3843;SDS011;1937;51.444;6.484;2023-11-22T00:08:07;17.33;;;10.10;;
3843;SDS011;1937;51.444;6.484;2023-11-22T00:10:34;14.90;;;9.10;;
3843;SDS011;1937;51.444;6.484;2023-11-22T00:13:00;27.63;;;10.07;;
3843;SDS011;1937;51.444;6.484;2023-11-22T00:15:28;22.27;;;10.10;;
3843;SDS011;1937;51.444;6.484;2023-11-22T00:17:55;20.93;;;9.53;;
3843;SDS011;1937;51.444;6.484;2023-11-22T00:20:22;18.17;;;10.37;;
3843;SDS011;1937;51.444;6.484;2023-11-22T00:22:50;22.73;;;9.73;;
3843;SDS011;1937;51.444;6.484;2023-11-22T00:25:16;22.20;;;10.53;;
3843;SDS011;1937;51.444;6.484;2023-11-22T00:27:44;24.13;;;11.37;;
3843;SDS011;1937;51.444;6.484;2023-11-22T00:30:14;18.33;;;10.40;;
3843;SDS011;1937;51.444;6.484;2023-11-22T00:32:43;21.87;;;10.67;;
3843;SDS011;1937;51.444;6.484;2023-11-22T00:35:10;18.13;;;10.47;;
3843;SDS011;1937;51.444;6.484;2023-11-22T00:37:37;22.43;;;10.77;;
3843;SDS011;1937;51.444;6.484;2023-11-22T00:40:04;21.00;;;11.87;;
3843;SDS011;1937;51.444;6.484;2023-11-22T00:42:35;19.97;;;10.87;;
3843;SDS011;1937;51.444;6.484;2023-11-22T00:45:05;19.87;;;11.30;;
3843;SDS011;1937;51.444;6.484;2023-11-22T00:47:33;18.60;;;10.33;;
3843;SDS011;1937;51.444;6.484;2023-11-22T00:50:01;28.53;;;12.77;;
3843;SDS011;1937;51.444;6.484;2023-11-22T00:52:29;24.57;;;12.90;;
3843;SDS011;1937;51.444;6.484;2023-11-22T00:54:56;24.67;;;13.03;;
3843;SDS011;1937;51.444;6.484;2023-11-22T00:57:23;19.90;;;11.37;;
3843;SDS011;1937;51.444;6.484;2023-11-22T00:59:51;19.93;;;11.00;;
3843;SDS011;1937;51.444;6.484;2023-11-22T01:02:18;25.00;;;11.93;;
3843;SDS011;1937;51.444;6.484;2023-11-22T01:04:45;23.80;;;12.23;;
3843;SDS011;1937;51.444;6.484;2023-11-22T01:07:14;24.60;;;13.30;;
3843;SDS011;1937;51.444;6.484;2023-11-22T01:09:41;22.17;;;11.63;;
3843;SDS011;1937;51.444;6.484;2023-11-22T01:12:07;19.60;;;11.10;;
3843;SDS011;1937;51.444;6.484;2023-11-22T01:14:35;21.07;;;12.20;;
3843;SDS011;1937;51.444;6.484;2023-11-22T01:17:01;19.20;;;10.83;;
3843;SDS011;1937;51.444;6.484;2023-11-22T01:19:28;22.30;;;12.03;;
3843;SDS011;1937;51.444;6.484;2023-11-22T01:21:56;21.77;;;12.23;;
3843;SDS011;1937;51.444;6.484;2023-11-22T01:24:24;19.93;;;12.20;;
3843;SDS011;1937;51.444;6.484;2023-11-22T01:26:53;29.60;;;13.47;;
3843;SDS011;1937;51.444;6.484;2023-11-22T01:29:20;31.30;;;13.57;;
3843;SDS011;1937;51.444;6.484;2023-11-22T01:31:47;27.13;;;13.30;;
3843;SDS011;1937;51.444;6.484;2023-11-22T01:34:14;21.87;;;12.30;;
3843;SDS011;1937;51.444;6.484;2023-11-22T01:36:42;22.77;;;11.67;;
3843;SDS011;1937;51.444;6.484;2023-11-22T01:39:12;23.50;;;12.03;;
3843;SDS011;1937;51.444;6.484;2023-11-22T01:41:41;28.30;;;12.47;;
3843;SDS011;1937;51.444;6.484;2023-11-22T01:44:10;26.80;;;12.87;;
3843;SDS011;1937;51.444;6.484;2023-11-22T01:46:37;21.77;;;12.60;;
3843;SDS011;1937;51.444;6.484;2023-11-22T01:49:04;22.87;;;11.57;;
3843;SDS011;1937;51.444;6.484;2023-11-22T01:51:31;26.73;;;13.90;;
3843;SDS011;1937;51.444;6.484;2023-11-22T01:53:58;22.93;;;11.13;;
3843;SDS011;1937;51.444;6.484;2023-11-22T01:56:26;25.10;;;13.53;;
3843;SDS011;1937;51.444;6.484;2023-11-22T01:58:56;25.47;;;12.40;;
3843;SDS011;1937;51.444;6.484;2023-11-22T02:01:24;21.23;;;11.23;;
3843;SDS011;1937;51.444;6.484;2023-11-22T02:03:52;21.17;;;12.10;;
3843;SDS011;1937;51.444;6.484;2023-11-22T02:06:19;24.10;;;12.77;;
3843;SDS011;1937;51.444;6.484;2023-11-22T02:08:47;23.80;;;12.50;;
3843;SDS011;1937;51.444;6.484;2023-11-22T02:11:16;24.17;;;11.83;;
3843;SDS011;1937;51.444;6.484;2023-11-22T02:13:47;22.50;;;12.07;;
3843;SDS011;1937;51.444;6.484;2023-11-22T02:16:15;22.63;;;12.37;;
3843;SDS011;1937;51.444;6.484;2023-11-22T02:18:43;29.60;;;13.27;;
3843;SDS011;1937;51.444;6.484;2023-11-22T02:21:10;28.60;;;13.50;;
3843;SDS011;1937;51.444;6.484;2023-11-22T02:23:38;26.00;;;13.53;;
3843;SDS011;1937;51.444;6.484;2023-11-22T02:26:05;23.37;;;12.30;;
3843;SDS011;1937;51.444;6.484;2023-11-22T02:28:32;21.90;;;13.20;;
3843;SDS011;1937;51.444;6.484;2023-11-22T02:30:59;24.00;;;12.33;;
3843;SDS011;1937;51.444;6.484;2023-11-22T02:33:25;25.77;;;13.97;;
3843;SDS011;1937;51.444;6.484;2023-11-22T02:35:52;22.53;;;12.83;;
3843;SDS011;1937;51.444;6.484;2023-11-22T02:38:19;25.10;;;13.43;;
3843;SDS011;1937;51.444;6.484;2023-11-22T02:40:48;22.63;;;12.03;;
3843;SDS011;1937;51.444;6.484;2023-11-22T02:43:16;30.67;;;13.10;;
3843;SDS011;1937;51.444;6.484;2023-11-22T02:45:43;32.13;;;12.63;;
3843;SDS011;1937;51.444;6.484;2023-11-22T02:48:12;26.80;;;13.33;;
3843;SDS011;1937;51.444;6.484;2023-11-22T02:50:39;31.23;;;12.50;;
3843;SDS011;1937;51.444;6.484;2023-11-22T02:53:08;32.07;;;13.50;;
3843;SDS011;1937;51.444;6.484;2023-11-22T02:55:36;23.53;;;13.10;;
3843;SDS011;1937;51.444;6.484;2023-11-22T02:58:05;25.60;;;12.00;;
3843;SDS011;1937;51.444;6.484;2023-11-22T03:00:32;31.73;;;13.97;;
3843;SDS011;1937;51.444;6.484;2023-11-22T03:03:00;22.83;;;11.60;;
3843;SDS011;1937;51.444;6.484;2023-11-22T03:05:28;29.13;;;14.03;;
3843;SDS011;1937;51.444;6.484;2023-11-22T03:07:55;22.97;;;12.00;;
3843;SDS011;1937;51.444;6.484;2023-11-22T03:10:23;30.90;;;13.63;;
3843;SDS011;1937;51.444;6.484;2023-11-22T03:12:50;24.57;;;14.00;;
3843;SDS011;1937;51.444;6.484;2023-11-22T03:15:18;28.30;;;13.63;;
3843;SDS011;1937;51.444;6.484;2023-11-22T03:17:45;24.43;;;12.70;;
3843;SDS011;1937;51.444;6.484;2023-11-22T03:20:13;30.23;;;13.30;;
3843;SDS011;1937;51.444;6.484;2023-11-22T03:22:41;29.60;;;14.50;;
3843;SDS011;1937;51.444;6.484;2023-11-22T03:25:09;27.60;;;13.20;;
3843;SDS011;1937;51.444;6.484;2023-11-22T03:27:37;25.63;;;13.87;;
3843;SDS011;1937;51.444;6.484;2023-11-22T03:30:04;27.50;;;12.73;;
3843;SDS011;1937;51.444;6.484;2023-11-22T03:32:37;24.37;;;12.13;;
3843;SDS011;1937;51.444;6.484;2023-11-22T03:35:05;27.87;;;13.50;;
3843;SDS011;1937;51.444;6.484;2023-11-22T03:37:32;25.23;;;12.30;;
3843;SDS011;1937;51.444;6.484;2023-11-22T03:39:58;25.93;;;13.53;;
3843;SDS011;1937;51.444;6.484;2023-11-22T03:42:25;22.73;;;13.50;;
3843;SDS011;1937;51.444;6.484;2023-11-22T03:44:55;29.40;;;12.33;;
3843;SDS011;1937;51.444;6.484;2023-11-22T03:47:24;23.37;;;12.80;;
3843;SDS011;1937;51.444;6.484;2023-11-22T03:49:52;29.13;;;14.07;;
3843;SDS011;1937;51.444;6.484;2023-11-22T03:52:18;26.57;;;12.23;;
3843;SDS011;1937;51.444;6.484;2023-11-22T03:54:45;27.13;;;13.50;;
3843;SDS011;1937;51.444;6.484;2023-11-22T03:57:12;24.17;;;12.73;;
3843;SDS011;1937;51.444;6.484;2023-11-22T03:59:40;28.37;;;12.50;;
3843;SDS011;1937;51.444;6.484;2023-11-22T04:02:07;25.07;;;12.43;;
3843;SDS011;1937;51.444;6.484;2023-11-22T04:04:34;30.47;;;13.60;;
3843;SDS011;1937;51.444;6.484;2023-11-22T04:07:03;30.73;;;12.60;;
3843;SDS011;1937;51.444;6.484;2023-11-22T04:09:30;27.80;;;12.17;;
3843;SDS011;1937;51.444;6.484;2023-11-22T04:11:57;27.60;;;13.80;;
3843;SDS011;1937;51.444;6.484;2023-11-22T04:14:24;24.90;;;13.97;;
3843;SDS011;1937;51.444;6.484;2023-11-22T04:16:52;27.27;;;13.07;;
3843;SDS011;1937;51.444;6.484;2023-11-22T04:19:19;26.40;;;12.37;;
3843;SDS011;1937;51.444;6.484;2023-11-22T04:21:46;29.90;;;13.80;;
3843;SDS011;1937;51.444;6.484;2023-11-22T04:24:14;33.67;;;12.83;;
3843;SDS011;1937;51.444;6.484;2023-11-22T04:26:42;39.33;;;13.27;;
3843;SDS011;1937;51.444;6.484;2023-11-22T04:29:09;26.03;;;13.50;;
3843;SDS011;1937;51.444;6.484;2023-11-22T04:31:35;30.70;;;13.03;;
3843;SDS011;1937;51.444;6.484;2023-11-22T04:34:02;32.27;;;14.20;;
3843;SDS011;1937;51.444;6.484;2023-11-22T04:36:29;34.37;;;14.70;;
3843;SDS011;1937;51.444;6.484;2023-11-22T04:38:56;25.27;;;13.20;;
3843;SDS011;1937;51.444;6.484;2023-11-22T04:41:24;26.33;;;14.30;;
3843;SDS011;1937;51.444;6.484;2023-11-22T04:43:51;24.67;;;13.27;;
3843;SDS011;1937;51.444;6.484;2023-11-22T04:46:18;27.77;;;13.20;;
3843;SDS011;1937;51.444;6.484;2023-11-22T04:48:45;25.90;;;13.17;;
3843;SDS011;1937;51.444;6.484;2023-11-22T04:51:16;30.20;;;13.73;;
3843;SDS011;1937;51.444;6.484;2023-11-22T04:53:43;29.43;;;12.07;;
3843;SDS011;1937;51.444;6.484;2023-11-22T04:56:10;29.47;;;14.00;;
3843;SDS011;1937;51.444;6.484;2023-11-22T04:58:38;23.67;;;12.90;;
3843;SDS011;1937;51.444;6.484;2023-11-22T05:01:05;31.37;;;13.87;;
3843;SDS011;1937;51.444;6.484;2023-11-22T05:03:35;21.83;;;12.10;;
3843;SDS011;1937;51.444;6.484;2023-11-22T05:06:02;25.63;;;13.37;;
3843;SDS011;1937;51.444;6.484;2023-11-22T05:08:32;26.77;;;13.10;;
3843;SDS011;1937;51.444;6.484;2023-11-22T05:10:59;24.90;;;14.00;;
3843;SDS011;1937;51.444;6.484;2023-11-22T05:13:29;25.60;;;14.40;;
3843;SDS011;1937;51.444;6.484;2023-11-22T05:15:57;30.97;;;12.97;;
3843;SDS011;1937;51.444;6.484;2023-11-22T05:18:26;28.23;;;14.43;;
3843;SDS011;1937;51.444;6.484;2023-11-22T05:20:52;27.07;;;14.57;;
3843;SDS011;1937;51.444;6.484;2023-11-22T05:23:19;28.63;;;13.90;;
3843;SDS011;1937;51.444;6.484;2023-11-22T05:25:47;18.57;;;11.50;;
3843;SDS011;1937;51.444;6.484;2023-11-22T05:28:13;25.70;;;13.63;;
3843;SDS011;1937;51.444;6.484;2023-11-22T05:30:40;25.07;;;12.53;;
3843;SDS011;1937;51.444;6.484;2023-11-22T05:33:08;31.13;;;14.40;;
3843;SDS011;1937;51.444;6.484;2023-11-22T05:35:35;36.90;;;14.03;;
3843;SDS011;1937;51.444;6.484;2023-11-22T05:38:01;39.10;;;15.67;;
3843;SDS011;1937;51.444;6.484;2023-11-22T05:40:28;27.17;;;14.77;;
3843;SDS011;1937;51.444;6.484;2023-11-22T05:42:54;38.23;;;14.97;;
3843;SDS011;1937;51.444;6.484;2023-11-22T05:45:21;27.37;;;13.20;;
3843;SDS011;1937;51.444;6.484;2023-11-22T05:47:49;25.40;;;12.43;;
3843;SDS011;1937;51.444;6.484;2023-11-22T05:50:17;36.83;;;13.90;;
3843;SDS011;1937;51.444;6.484;2023-11-22T05:52:43;41.03;;;13.80;;
3843;SDS011;1937;51.444;6.484;2023-11-22T05:55:10;25.93;;;10.97;;
3843;SDS011;1937;51.444;6.484;2023-11-22T05:57:39;42.93;;;15.83;;
3843;SDS011;1937;51.444;6.484;2023-11-22T06:00:06;30.00;;;12.07;;
3843;SDS011;1937;51.444;6.484;2023-11-22T06:02:33;24.47;;;12.23;;
3843;SDS011;1937;51.444;6.484;2023-11-22T06:05:00;19.80;;;9.97;;
3843;SDS011;1937;51.444;6.484;2023-11-22T06:07:28;30.87;;;12.90;;
3843;SDS011;1937;51.444;6.484;2023-11-22T06:09:54;25.50;;;12.83;;
3843;SDS011;1937;51.444;6.484;2023-11-22T06:12:22;25.13;;;12.27;;
3843;SDS011;1937;51.444;6.484;2023-11-22T06:14:48;19.20;;;10.43;;
3843;SDS011;1937;51.444;6.484;2023-11-22T06:17:15;20.13;;;10.17;;
3843;SDS011;1937;51.444;6.484;2023-11-22T06:19:42;25.10;;;12.57;;
3843;SDS011;1937;51.444;6.484;2023-11-22T06:22:08;25.20;;;11.43;;
3843;SDS011;1937;51.444;6.484;2023-11-22T06:24:36;22.57;;;11.77;;
3843;SDS011;1937;51.444;6.484;2023-11-22T06:27:03;20.30;;;10.80;;
3843;SDS011;1937;51.444;6.484;2023-11-22T06:29:30;21.07;;;10.67;;
3843;SDS011;1937;51.444;6.484;2023-11-22T06:31:57;21.87;;;10.60;;
3843;SDS011;1937;51.444;6.484;2023-11-22T06:34:23;19.63;;;10.70;;
3843;SDS011;1937;51.444;6.484;2023-11-22T06:36:50;19.23;;;10.20;;
3843;SDS011;1937;51.444;6.484;2023-11-22T06:39:16;19.27;;;9.57;;
3843;SDS011;1937;51.444;6.484;2023-11-22T06:41:44;17.93;;;8.80;;
3843;SDS011;1937;51.444;6.484;2023-11-22T06:44:12;24.40;;;9.90;;
3843;SDS011;1937;51.444;6.484;2023-11-22T06:46:39;18.93;;;9.53;;
3843;SDS011;1937;51.444;6.484;2023-11-22T06:49:06;14.97;;;9.13;;
3843;SDS011;1937;51.444;6.484;2023-11-22T06:51:34;13.57;;;8.90;;
3843;SDS011;1937;51.444;6.484;2023-11-22T06:54:00;14.70;;;8.10;;
3843;SDS011;1937;51.444;6.484;2023-11-22T06:56:27;28.73;;;9.87;;
3843;SDS011;1937;51.444;6.484;2023-11-22T06:58:55;18.47;;;9.20;;
3843;SDS011;1937;51.444;6.484;2023-11-22T07:01:22;13.63;;;8.97;;
3843;SDS011;1937;51.444;6.484;2023-11-22T07:03:50;30.93;;;11.57;;
3843;SDS011;1937;51.444;6.484;2023-11-22T07:06:17;16.90;;;8.60;;
3843;SDS011;1937;51.444;6.484;2023-11-22T07:08:44;13.60;;;8.33;;
3843;SDS011;1937;51.444;6.484;2023-11-22T07:11:11;19.00;;;10.03;;
3843;SDS011;1937;51.444;6.484;2023-11-22T07:13:37;21.00;;;9.93;;
3843;SDS011;1937;51.444;6.484;2023-11-22T07:16:06;18.47;;;10.03;;
3843;SDS011;1937;51.444;6.484;2023-11-22T07:18:33;19.23;;;9.90;;
3843;SDS011;1937;51.444;6.484;2023-11-22T07:20:59;23.07;;;12.30;;
3843;SDS011;1937;51.444;6.484;2023-11-22T07:23:26;26.90;;;13.70;;
3843;SDS011;1937;51.444;6.484;2023-11-22T07:25:54;30.50;;;12.90;;
3843;SDS011;1937;51.444;6.484;2023-11-22T07:28:21;22.00;;;12.13;;
3843;SDS011;1937;51.444;6.484;2023-11-22T07:30:47;18.27;;;11.17;;
3843;SDS011;1937;51.444;6.484;2023-11-22T07:33:16;34.73;;;15.17;;
3843;SDS011;1937;51.444;6.484;2023-11-22T07:35:43;28.27;;;13.43;;
3843;SDS011;1937;51.444;6.484;2023-11-22T07:38:11;26.23;;;12.27;;
3843;SDS011;1937;51.444;6.484;2023-11-22T07:40:37;30.60;;;14.57;;
3843;SDS011;1937;51.444;6.484;2023-11-22T07:43:04;24.40;;;13.37;;
3843;SDS011;1937;51.444;6.484;2023-11-22T07:45:32;25.67;;;13.53;;
3843;SDS011;1937;51.444;6.484;2023-11-22T07:47:58;34.17;;;15.37;;
3843;SDS011;1937;51.444;6.484;2023-11-22T07:50:27;29.27;;;14.27;;
3843;SDS011;1937;51.444;6.484;2023-11-22T07:52:54;34.87;;;14.83;;
3843;SDS011;1937;51.444;6.484;2023-11-22T07:55:21;29.10;;;13.27;;
3843;SDS011;1937;51.444;6.484;2023-11-22T07:57:48;29.77;;;13.97;;
3843;SDS011;1937;51.444;6.484;2023-11-22T08:00:16;31.67;;;15.70;;
3843;SDS011;1937;51.444;6.484;2023-11-22T08:02:44;28.70;;;14.57;;
3843;SDS011;1937;51.444;6.484;2023-11-22T08:05:11;32.63;;;15.70;;
3843;SDS011;1937;51.444;6.484;2023-11-22T08:07:41;35.10;;;15.10;;
3843;SDS011;1937;51.444;6.484;2023-11-22T08:10:10;34.50;;;15.10;;
3843;SDS011;1937;51.444;6.484;2023-11-22T08:12:43;25.23;;;13.57;;
3843;SDS011;1937;51.444;6.484;2023-11-22T08:15:11;25.83;;;14.73;;
3843;SDS011;1937;51.444;6.484;2023-11-22T08:17:38;25.23;;;14.20;;
3843;SDS011;1937;51.444;6.484;2023-11-22T08:20:05;26.20;;;13.00;;
3843;SDS011;1937;51.444;6.484;2023-11-22T08:22:37;24.03;;;12.53;;
3843;SDS011;1937;51.444;6.484;2023-11-22T08:25:06;21.40;;;11.47;;
3843;SDS011;1937;51.444;6.484;2023-11-22T08:27:33;18.17;;;11.27;;
3843;SDS011;1937;51.444;6.484;2023-11-22T08:30:00;18.10;;;11.00;;
3843;SDS011;1937;51.444;6.484;2023-11-22T08:32:30;17.43;;;11.03;;
3843;SDS011;1937;51.444;6.484;2023-11-22T08:34:56;17.20;;;10.03;;
3843;SDS011;1937;51.444;6.484;2023-11-22T08:37:23;16.97;;;10.23;;
3843;SDS011;1937;51.444;6.484;2023-11-22T08:39:50;18.50;;;10.60;;
3843;SDS011;1937;51.444;6.484;2023-11-22T08:42:18;18.03;;;9.60;;
3843;SDS011;1937;51.444;6.484;2023-11-22T08:44:44;15.47;;;9.87;;
3843;SDS011;1937;51.444;6.484;2023-11-22T08:47:11;16.80;;;9.23;;
3843;SDS011;1937;51.444;6.484;2023-11-22T08:49:38;13.90;;;8.50;;
3843;SDS011;1937;51.444;6.484;2023-11-22T08:52:06;11.43;;;8.80;;
3843;SDS011;1937;51.444;6.484;2023-11-22T08:54:33;12.90;;;8.87;;
3843;SDS011;1937;51.444;6.484;2023-11-22T08:57:00;11.87;;;8.57;;
3843;SDS011;1937;51.444;6.484;2023-11-22T08:59:28;17.40;;;9.47;;
3843;SDS011;1937;51.444;6.484;2023-11-22T09:01:54;14.63;;;8.90;;
3843;SDS011;1937;51.444;6.484;2023-11-22T09:04:21;15.20;;;9.40;;
3843;SDS011;1937;51.444;6.484;2023-11-22T09:06:49;17.47;;;9.33;;
3843;SDS011;1937;51.444;6.484;2023-11-22T09:09:16;15.20;;;8.20;;
3843;SDS011;1937;51.444;6.484;2023-11-22T09:11:42;15.33;;;8.37;;
3843;SDS011;1937;51.444;6.484;2023-11-22T09:14:09;15.80;;;8.43;;
3843;SDS011;1937;51.444;6.484;2023-11-22T09:16:37;14.73;;;8.10;;
3843;SDS011;1937;51.444;6.484;2023-11-22T09:19:05;13.77;;;8.30;;
3843;SDS011;1937;51.444;6.484;2023-11-22T09:21:32;14.40;;;8.03;;
3843;SDS011;1937;51.444;6.484;2023-11-22T09:24:00;15.63;;;8.53;;
3843;SDS011;1937;51.444;6.484;2023-11-22T09:26:27;15.47;;;9.50;;
3843;SDS011;1937;51.444;6.484;2023-11-22T09:28:54;17.73;;;8.93;;
3843;SDS011;1937;51.444;6.484;2023-11-22T09:31:20;19.03;;;10.37;;
3843;SDS011;1937;51.444;6.484;2023-11-22T09:33:48;16.27;;;9.00;;
3843;SDS011;1937;51.444;6.484;2023-11-22T09:36:14;20.60;;;10.23;;
3843;SDS011;1937;51.444;6.484;2023-11-22T09:38:43;17.90;;;9.27;;
3843;SDS011;1937;51.444;6.484;2023-11-22T09:41:09;15.20;;;8.93;;
3843;SDS011;1937;51.444;6.484;2023-11-22T09:43:36;13.50;;;8.80;;
3843;SDS011;1937;51.444;6.484;2023-11-22T09:46:05;18.27;;;8.60;;
3843;SDS011;1937;51.444;6.484;2023-11-22T09:48:34;17.83;;;9.67;;
3843;SDS011;1937;51.444;6.484;2023-11-22T09:51:03;14.70;;;7.73;;
3843;SDS011;1937;51.444;6.484;2023-11-22T09:53:32;14.37;;;8.37;;
3843;SDS011;1937;51.444;6.484;2023-11-22T09:56:00;12.27;;;8.00;;
3843;SDS011;1937;51.444;6.484;2023-11-22T09:58:29;17.53;;;8.67;;
3843;SDS011;1937;51.444;6.484;2023-11-22T10:00:56;12.30;;;7.53;;
3843;SDS011;1937;51.444;6.484;2023-11-22T10:03:23;14.40;;;8.70;;
3843;SDS011;1937;51.444;6.484;2023-11-22T10:05:53;13.80;;;8.70;;
3843;SDS011;1937;51.444;6.484;2023-11-22T10:08:23;20.13;;;9.47;;
3843;SDS011;1937;51.444;6.484;2023-11-22T10:10:50;16.77;;;8.43;;
3843;SDS011;1937;51.444;6.484;2023-11-22T10:13:19;13.50;;;8.30;;
3843;SDS011;1937;51.444;6.484;2023-11-22T10:15:46;12.67;;;8.20;;
3843;SDS011;1937;51.444;6.484;2023-11-22T10:18:14;12.10;;;7.70;;
3843;SDS011;1937;51.444;6.484;2023-11-22T10:20:43;15.50;;;7.87;;
3843;SDS011;1937;51.444;6.484;2023-11-22T10:23:11;10.97;;;7.13;;
3843;SDS011;1937;51.444;6.484;2023-11-22T10:25:43;12.20;;;8.10;;
3843;SDS011;1937;51.444;6.484;2023-11-22T10:28:12;11.80;;;7.07;;
3843;SDS011;1937;51.444;6.484;2023-11-22T10:30:39;16.27;;;8.37;;
3843;SDS011;1937;51.444;6.484;2023-11-22T10:33:07;15.90;;;7.57;;
3843;SDS011;1937;51.444;6.484;2023-11-22T10:35:38;15.23;;;7.80;;
3843;SDS011;1937;51.444;6.484;2023-11-22T10:38:07;11.80;;;7.63;;
3843;SDS011;1937;51.444;6.484;2023-11-22T10:40:34;15.00;;;8.30;;
3843;SDS011;1937;51.444;6.484;2023-11-22T10:43:03;11.80;;;8.60;;
3843;SDS011;1937;51.444;6.484;2023-11-22T10:45:31;15.63;;;8.50;;
3843;SDS011;1937;51.444;6.484;2023-11-22T10:47:58;13.63;;;8.17;;
3843;SDS011;1937;51.444;6.484;2023-11-22T10:50:27;13.30;;;7.33;;
3843;SDS011;1937;51.444;6.484;2023-11-22T10:52:53;16.40;;;8.43;;
3843;SDS011;1937;51.444;6.484;2023-11-22T10:55:26;15.70;;;7.20;;
3843;SDS011;1937;51.444;6.484;2023-11-22T10:57:54;13.30;;;7.73;;
3843;SDS011;1937;51.444;6.484;2023-11-22T11:00:26;13.70;;;7.80;;
3843;SDS011;1937;51.444;6.484;2023-11-22T11:02:54;15.27;;;8.30;;
3843;SDS011;1937;51.444;6.484;2023-11-22T11:05:27;12.33;;;7.67;;
3843;SDS011;1937;51.444;6.484;2023-11-22T11:07:57;10.13;;;7.57;;
3843;SDS011;1937;51.444;6.484;2023-11-22T11:10:28;16.87;;;8.43;;
3843;SDS011;1937;51.444;6.484;2023-11-22T11:12:55;11.63;;;6.77;;
3843;SDS011;1937;51.444;6.484;2023-11-22T11:15:22;13.00;;;6.50;;
3843;SDS011;1937;51.444;6.484;2023-11-22T11:17:51;11.73;;;7.20;;
3843;SDS011;1937;51.444;6.484;2023-11-22T11:20:18;10.33;;;6.60;;
3843;SDS011;1937;51.444;6.484;2023-11-22T11:22:49;10.87;;;6.70;;
3843;SDS011;1937;51.444;6.484;2023-11-22T11:25:17;10.53;;;6.57;;
3843;SDS011;1937;51.444;6.484;2023-11-22T11:27:44;14.17;;;7.50;;
3843;SDS011;1937;51.444;6.484;2023-11-22T11:33:17;10.10;;;6.00;;
3843;SDS011;1937;51.444;6.484;2023-11-22T11:35:46;11.03;;;7.10;;
3843;SDS011;1937;51.444;6.484;2023-11-22T11:38:14;9.37;;;6.87;;
3843;SDS011;1937;51.444;6.484;2023-11-22T11:40:42;14.40;;;6.63;;
3843;SDS011;1937;51.444;6.484;2023-11-22T11:43:09;15.17;;;8.10;;
3843;SDS011;1937;51.444;6.484;2023-11-22T11:45:38;15.03;;;7.30;;
3843;SDS011;1937;51.444;6.484;2023-11-22T11:48:11;11.70;;;6.33;;
3843;SDS011;1937;51.444;6.484;2023-11-22T11:50:40;11.03;;;7.07;;
3843;SDS011;1937;51.444;6.484;2023-11-22T11:53:07;11.70;;;6.53;;
3843;SDS011;1937;51.444;6.484;2023-11-22T11:55:33;13.47;;;6.60;;
3843;SDS011;1937;51.444;6.484;2023-11-22T11:58:04;10.53;;;6.90;;
3843;SDS011;1937;51.444;6.484;2023-11-22T12:00:32;17.87;;;6.50;;
3843;SDS011;1937;51.444;6.484;2023-11-22T12:02:59;9.73;;;6.23;;
3843;SDS011;1937;51.444;6.484;2023-11-22T12:05:26;9.63;;;6.70;;
3843;SDS011;1937;51.444;6.484;2023-11-22T12:07:54;11.73;;;7.17;;
3843;SDS011;1937;51.444;6.484;2023-11-22T12:10:21;9.57;;;6.60;;
3843;SDS011;1937;51.444;6.484;2023-11-22T12:12:49;11.03;;;6.93;;
3843;SDS011;1937;51.444;6.484;2023-11-22T12:15:16;6.70;;;4.57;;
3843;SDS011;1937;51.444;6.484;2023-11-22T12:17:44;25.63;;;12.57;;
3843;SDS011;1937;51.444;6.484;2023-11-22T12:20:11;25.00;;;14.53;;
3843;SDS011;1937;51.444;6.484;2023-11-22T12:22:39;12.87;;;8.20;;
3843;SDS011;1937;51.444;6.484;2023-11-22T12:25:08;13.83;;;5.43;;
3843;SDS011;1937;51.444;6.484;2023-11-22T12:27:39;9.47;;;5.60;;
3843;SDS011;1937;51.444;6.484;2023-11-22T12:30:07;8.00;;;5.63;;
3843;SDS011;1937;51.444;6.484;2023-11-22T12:32:38;10.30;;;6.20;;
3843;SDS011;1937;51.444;6.484;2023-11-22T12:35:06;11.10;;;7.40;;
3843;SDS011;1937;51.444;6.484;2023-11-22T12:37:33;10.00;;;6.43;;
3843;SDS011;1937;51.444;6.484;2023-11-22T12:40:06;10.13;;;6.00;;
3843;SDS011;1937;51.444;6.484;2023-11-22T12:42:46;6.20;;;3.70;;
3843;SDS011;1937;51.444;6.484;2023-11-22T12:45:17;5.87;;;3.40;;
3843;SDS011;1937;51.444;6.484;2023-11-22T12:47:48;5.80;;;4.03;;
3843;SDS011;1937;51.444;6.484;2023-11-22T12:50:31;4.83;;;3.70;;
3843;SDS011;1937;51.444;6.484;2023-11-22T12:53:00;4.10;;;3.43;;
3843;SDS011;1937;51.444;6.484;2023-11-22T12:55:35;5.20;;;3.07;;
3843;SDS011;1937;51.444;6.484;2023-11-22T12:58:02;5.03;;;3.30;;
3843;SDS011;1937;51.444;6.484;2023-11-22T13:00:29;6.33;;;3.90;;
3843;SDS011;1937;51.444;6.484;2023-11-22T13:02:55;4.77;;;3.80;;
3843;SDS011;1937;51.444;6.484;2023-11-22T13:05:22;4.00;;;3.60;;
3843;SDS011;1937;51.444;6.484;2023-11-22T13:07:49;6.83;;;4.20;;
3843;SDS011;1937;51.444;6.484;2023-11-22T13:10:16;6.23;;;3.80;;
3843;SDS011;1937;51.444;6.484;2023-11-22T13:12:44;6.43;;;3.53;;
3843;SDS011;1937;51.444;6.484;2023-11-22T13:15:11;5.30;;;3.93;;
3843;SDS011;1937;51.444;6.484;2023-11-22T13:17:37;5.00;;;3.53;;
3843;SDS011;1937;51.444;6.484;2023-11-22T13:20:06;9.60;;;4.40;;
3843;SDS011;1937;51.444;6.484;2023-11-22T13:22:38;9.73;;;4.30;;
3843;SDS011;1937;51.444;6.484;2023-11-22T13:25:05;7.47;;;5.10;;
3843;SDS011;1937;51.444;6.484;2023-11-22T13:27:32;9.77;;;5.13;;
3843;SDS011;1937;51.444;6.484;2023-11-22T13:30:03;7.67;;;5.07;;
3843;SDS011;1937;51.444;6.484;2023-11-22T13:32:30;9.30;;;6.13;;
3843;SDS011;1937;51.444;6.484;2023-11-22T13:34:57;12.70;;;6.17;;
3843;SDS011;1937;51.444;6.484;2023-11-22T13:37:24;8.40;;;5.30;;
3843;SDS011;1937;51.444;6.484;2023-11-22T13:39:50;11.50;;;7.77;;
3843;SDS011;1937;51.444;6.484;2023-11-22T13:42:17;9.10;;;5.60;;
3843;SDS011;1937;51.444;6.484;2023-11-22T13:44:44;13.47;;;6.00;;
3843;SDS011;1937;51.444;6.484;2023-11-22T13:47:11;13.70;;;6.10;;
3843;SDS011;1937;51.444;6.484;2023-11-22T13:49:39;10.10;;;5.83;;
3843;SDS011;1937;51.444;6.484;2023-11-22T13:52:07;8.93;;;6.20;;
3843;SDS011;1937;51.444;6.484;2023-11-22T13:54:34;7.50;;;5.27;;
3843;SDS011;1937;51.444;6.484;2023-11-22T13:57:04;9.50;;;5.57;;
3843;SDS011;1937;51.444;6.484;2023-11-22T13:59:30;9.10;;;5.03;;
3843;SDS011;1937;51.444;6.484;2023-11-22T14:01:57;9.30;;;4.87;;
3843;SDS011;1937;51.444;6.484;2023-11-22T14:04:25;10.20;;;4.80;;
3843;SDS011;1937;51.444;6.484;2023-11-22T14:06:51;8.83;;;5.30;;
3843;SDS011;1937;51.444;6.484;2023-11-22T14:09:18;8.73;;;5.00;;
3843;SDS011;1937;51.444;6.484;2023-11-22T14:11:45;13.70;;;5.83;;
3843;SDS011;1937;51.444;6.484;2023-11-22T14:14:12;8.20;;;5.93;;
3843;SDS011;1937;51.444;6.484;2023-11-22T14:16:39;12.47;;;5.47;;
3843;SDS011;1937;51.444;6.484;2023-11-22T14:19:10;11.27;;;5.87;;
3843;SDS011;1937;51.444;6.484;2023-11-22T14:21:39;16.53;;;6.70;;
3843;SDS011;1937;51.444;6.484;2023-11-22T14:24:06;12.20;;;5.97;;
3843;SDS011;1937;51.444;6.484;2023-11-22T14:26:34;14.93;;;7.30;;
3843;SDS011;1937;51.444;6.484;2023-11-22T14:29:00;12.80;;;6.87;;
3843;SDS011;1937;51.444;6.484;2023-11-22T14:31:27;11.73;;;7.80;;
3843;SDS011;1937;51.444;6.484;2023-11-22T14:33:54;10.90;;;7.10;;
3843;SDS011;1937;51.444;6.484;2023-11-22T14:36:22;14.93;;;6.97;;
3843;SDS011;1937;51.444;6.484;2023-11-22T14:38:50;11.90;;;8.20;;
3843;SDS011;1937;51.444;6.484;2023-11-22T14:41:19;17.63;;;9.47;;
3843;SDS011;1937;51.444;6.484;2023-11-22T14:43:45;17.90;;;8.80;;
3843;SDS011;1937;51.444;6.484;2023-11-22T14:46:12;12.80;;;8.67;;
3843;SDS011;1937;51.444;6.484;2023-11-22T14:48:38;17.47;;;9.90;;
3843;SDS011;1937;51.444;6.484;2023-11-22T14:51:07;17.40;;;8.10;;
3843;SDS011;1937;51.444;6.484;2023-11-22T14:53:35;19.27;;;7.90;;
3843;SDS011;1937;51.444;6.484;2023-11-22T14:56:05;13.60;;;8.13;;
3843;SDS011;1937;51.444;6.484;2023-11-22T14:58:33;15.17;;;6.90;;
3843;SDS011;1937;51.444;6.484;2023-11-22T15:00:59;15.00;;;7.27;;